createdAt,value
2023-04-14T00:00:19.637Z,38.35
2023-04-14T00:01:19.633Z,38.19
2023-04-14T00:02:19.758Z,37.87
2023-04-14T00:03:19.966Z,37.87
2023-04-14T00:04:19.962Z,45.60
2023-04-14T00:05:19.725Z,42.86
2023-04-14T00:06:19.601Z,38.99
2023-04-14T00:07:19.579Z,45.12
2023-04-14T00:08:19.595Z,42.70
2023-04-14T00:09:19.569Z,38.83
2023-04-14T00:10:19.554Z,44.15
2023-04-14T00:11:19.557Z,42.06
2023-04-14T00:12:19.538Z,37.71
2023-04-14T00:13:19.561Z,38.35
2023-04-14T00:14:19.518Z,41.89
2023-04-14T00:15:19.519Z,39.32
2023-04-14T00:16:19.531Z,40.93
2023-04-14T00:17:19.589Z,41.25
2023-04-14T00:18:19.521Z,45.44
2023-04-14T00:19:19.485Z,45.12
2023-04-14T00:20:19.488Z,40.93
2023-04-14T00:21:19.467Z,46.89
2023-04-14T00:22:19.466Z,50.60
2023-04-14T00:23:19.475Z,44.31
2023-04-14T00:24:19.448Z,44.47
2023-04-14T00:25:19.439Z,37.71
2023-04-14T00:26:19.429Z,37.71
2023-04-14T00:27:19.426Z,39.80
2023-04-14T00:28:19.443Z,40.61
2023-04-14T00:29:19.405Z,41.73
2023-04-14T00:30:19.400Z,45.12
2023-04-14T00:31:19.414Z,43.99
2023-04-14T00:32:19.402Z,40.77
2023-04-14T00:33:19.404Z,40.77
2023-04-14T00:34:19.366Z,38.99
2023-04-14T00:35:19.364Z,38.99
2023-04-14T00:36:19.359Z,38.35
2023-04-14T00:37:19.346Z,39.96
2023-04-14T00:38:19.362Z,47.70
2023-04-14T00:39:19.326Z,44.79
2023-04-14T00:40:19.331Z,40.93
2023-04-14T00:41:19.309Z,42.22
2023-04-14T00:42:19.299Z,50.11
2023-04-14T00:43:19.316Z,44.47
2023-04-14T00:44:19.282Z,49.47
2023-04-14T00:45:19.277Z,48.02
2023-04-14T00:46:19.302Z,47.37
2023-04-14T00:47:19.310Z,47.37
2023-04-14T00:48:19.303Z,43.83
2023-04-14T00:49:19.245Z,46.73
2023-04-14T00:50:19.242Z,48.50
2023-04-14T00:51:19.227Z,44.47
2023-04-14T00:52:19.218Z,43.83
2023-04-14T00:53:19.240Z,51.40
2023-04-14T00:54:19.211Z,53.50
2023-04-14T00:55:19.204Z,48.50
2023-04-14T00:56:19.188Z,44.47
2023-04-14T00:57:19.188Z,44.47
2023-04-14T00:58:19.197Z,44.31
2023-04-14T00:59:19.164Z,46.41
2023-04-14T01:00:19.168Z,40.44
2023-04-14T01:01:19.167Z,43.02
2023-04-14T01:02:19.210Z,40.77
2023-04-14T01:03:19.232Z,48.50
2023-04-14T01:04:19.230Z,48.50
2023-04-14T01:05:19.213Z,43.51
2023-04-14T01:06:19.101Z,41.41
2023-04-14T01:07:19.109Z,42.54
2023-04-14T01:08:19.130Z,45.60
2023-04-14T01:09:19.088Z,48.34
2023-04-14T01:10:19.077Z,39.32
2023-04-14T01:11:19.097Z,44.15
2023-04-14T01:12:19.081Z,51.24
2023-04-14T01:13:19.089Z,43.02
2023-04-14T01:14:19.045Z,47.70
2023-04-14T01:15:19.036Z,55.27
2023-04-14T01:16:19.052Z,39.48
2023-04-14T01:17:19.048Z,47.70
2023-04-14T01:18:19.036Z,49.79
2023-04-14T01:19:19.011Z,42.54
2023-04-14T01:20:18.994Z,46.73
2023-04-14T01:21:18.984Z,41.57
2023-04-14T01:22:18.980Z,47.37
2023-04-14T01:23:19.000Z,48.98
2023-04-14T01:24:18.962Z,41.41
2023-04-14T01:25:18.962Z,41.25
2023-04-14T01:26:18.965Z,48.82
2023-04-14T01:27:18.942Z,42.22
2023-04-14T01:28:18.969Z,51.72
2023-04-14T01:29:18.929Z,42.06
2023-04-14T01:30:18.929Z,39.32
2023-04-14T01:31:18.961Z,40.61
2023-04-14T01:32:18.906Z,39.48
2023-04-14T01:33:18.931Z,40.28
2023-04-14T01:34:18.894Z,42.86
2023-04-14T01:35:18.889Z,41.73
2023-04-14T01:36:18.874Z,40.12
2023-04-14T01:37:18.870Z,39.80
2023-04-14T01:38:18.862Z,41.57
2023-04-14T01:39:18.895Z,41.09
2023-04-14T01:40:18.847Z,40.12
2023-04-14T01:41:18.836Z,43.18
2023-04-14T01:42:18.831Z,45.44
2023-04-14T01:43:18.854Z,50.43
2023-04-14T01:44:18.815Z,48.34
2023-04-14T01:45:18.808Z,40.93
2023-04-14T01:46:18.858Z,39.80
2023-04-14T01:47:18.801Z,40.28
2023-04-14T01:48:18.790Z,46.41
2023-04-14T01:49:18.807Z,39.96
2023-04-14T01:50:18.772Z,38.83
2023-04-14T01:51:18.758Z,41.73
2023-04-14T01:52:18.752Z,40.12
2023-04-14T01:53:18.775Z,45.60
2023-04-14T01:54:18.731Z,43.83
2023-04-14T01:55:18.731Z,41.73
2023-04-14T01:56:18.719Z,39.96
2023-04-14T01:57:18.710Z,40.61
2023-04-14T01:58:18.727Z,39.64
2023-04-14T01:59:18.699Z,41.41
2023-04-14T02:00:18.693Z,39.16
2023-04-14T02:01:18.715Z,39.16
2023-04-14T02:02:18.744Z,39.64
2023-04-14T02:03:18.773Z,40.61
2023-04-14T02:04:18.698Z,42.38
2023-04-14T02:05:18.652Z,41.25
2023-04-14T02:06:18.658Z,41.09
2023-04-14T02:07:18.640Z,43.02
2023-04-14T02:08:18.650Z,48.50
2023-04-14T02:09:18.630Z,49.79
2023-04-14T02:10:18.612Z,44.15
2023-04-14T02:11:18.602Z,50.92
2023-04-14T02:12:18.600Z,48.66
2023-04-14T02:13:18.613Z,42.54
2023-04-14T02:14:18.604Z,42.54
2023-04-14T02:15:18.575Z,48.18
2023-04-14T02:16:18.592Z,49.47
2023-04-14T02:17:18.578Z,44.15
2023-04-14T02:18:18.583Z,41.57
2023-04-14T02:19:18.543Z,44.31
2023-04-14T02:20:18.533Z,45.28
2023-04-14T02:21:18.533Z,43.83
2023-04-14T02:22:18.519Z,45.60
2023-04-14T02:23:18.548Z,52.85
2023-04-14T02:24:18.503Z,46.25
2023-04-14T02:25:18.500Z,41.57
2023-04-14T02:26:18.493Z,44.63
2023-04-14T02:27:18.476Z,43.51
2023-04-14T02:28:18.497Z,45.76
2023-04-14T02:29:18.459Z,46.73
2023-04-14T02:30:18.452Z,49.63
2023-04-14T02:31:18.578Z,42.38
2023-04-14T02:32:18.535Z,53.01
2023-04-14T02:33:18.424Z,43.34
2023-04-14T02:34:18.441Z,39.16
2023-04-14T02:35:18.411Z,39.16
2023-04-14T02:36:18.409Z,39.32
2023-04-14T02:37:18.396Z,47.70
2023-04-14T02:38:18.386Z,40.44
2023-04-14T02:39:18.404Z,44.96
2023-04-14T02:40:18.375Z,39.80
2023-04-14T02:41:18.362Z,39.32
2023-04-14T02:42:18.356Z,40.12
2023-04-14T02:43:18.347Z,39.32
2023-04-14T02:44:18.366Z,47.70
2023-04-14T02:45:18.335Z,41.09
2023-04-14T02:46:18.341Z,41.57
2023-04-14T02:47:18.318Z,45.28
2023-04-14T02:48:18.324Z,52.37
2023-04-14T02:49:18.333Z,41.41
2023-04-14T02:50:18.302Z,39.64
2023-04-14T02:51:18.286Z,38.35
2023-04-14T02:52:18.282Z,38.51
2023-04-14T02:53:18.277Z,43.51
2023-04-14T02:54:18.292Z,41.41
2023-04-14T02:55:18.257Z,46.73
2023-04-14T02:56:18.253Z,42.22
2023-04-14T02:57:18.331Z,43.34
2023-04-14T02:58:18.256Z,41.09
2023-04-14T02:59:18.258Z,38.83
2023-04-14T03:00:18.226Z,43.02
2023-04-14T03:01:18.240Z,45.44
2023-04-14T03:02:18.292Z,40.61
2023-04-14T03:03:18.265Z,41.25
2023-04-14T03:04:18.281Z,42.06
2023-04-14T03:05:18.184Z,46.25
2023-04-14T03:06:18.176Z,41.25
2023-04-14T03:07:18.169Z,40.77
2023-04-14T03:08:18.152Z,38.51
2023-04-14T03:09:18.179Z,39.48
2023-04-14T03:10:18.139Z,38.67
2023-04-14T03:11:18.135Z,44.15
2023-04-14T03:12:18.128Z,45.12
2023-04-14T03:13:18.124Z,42.70
2023-04-14T03:14:18.139Z,42.54
2023-04-14T03:15:18.113Z,46.25
2023-04-14T03:16:18.125Z,46.08
2023-04-14T03:17:18.113Z,47.37
2023-04-14T03:18:18.087Z,43.99
2023-04-14T03:19:18.100Z,44.79
2023-04-14T03:20:18.097Z,42.54
2023-04-14T03:21:18.057Z,45.12
2023-04-14T03:22:18.050Z,43.67
2023-04-14T03:23:18.044Z,44.31
2023-04-14T03:24:18.068Z,47.21
2023-04-14T03:25:18.024Z,48.50
2023-04-14T03:26:18.021Z,45.28
2023-04-14T03:27:18.005Z,44.96
2023-04-14T03:28:17.994Z,43.34
2023-04-14T03:29:18.014Z,43.99
2023-04-14T03:30:17.985Z,43.67
2023-04-14T03:31:18.026Z,43.02
2023-04-14T03:32:17.968Z,51.08
2023-04-14T03:33:17.966Z,42.86
2023-04-14T03:34:17.988Z,49.47
2023-04-14T03:35:17.962Z,47.21
2023-04-14T03:36:17.940Z,43.99
2023-04-14T03:37:17.927Z,46.73
2023-04-14T03:38:17.922Z,47.70
2023-04-14T03:39:17.946Z,54.30
2023-04-14T03:40:17.903Z,46.57
2023-04-14T03:41:17.898Z,43.99
2023-04-14T03:42:17.891Z,45.92
2023-04-14T03:43:17.879Z,44.47
2023-04-14T03:44:17.875Z,43.34
2023-04-14T03:45:17.900Z,47.70
2023-04-14T03:46:17.904Z,45.60
2023-04-14T03:47:17.856Z,44.15
2023-04-14T03:48:17.849Z,45.60
2023-04-14T03:49:17.837Z,49.47
2023-04-14T03:50:17.853Z,47.53
2023-04-14T03:51:17.823Z,46.08
2023-04-14T03:52:17.810Z,45.60
2023-04-14T03:53:17.798Z,45.92
2023-04-14T03:54:17.799Z,46.25
2023-04-14T03:55:17.809Z,47.86
2023-04-14T03:56:17.803Z,46.25
2023-04-14T03:57:17.770Z,43.67
2023-04-14T03:58:17.766Z,50.43
2023-04-14T03:59:17.761Z,48.50
2023-04-14T04:00:17.768Z,45.28
2023-04-14T04:01:17.748Z,43.67
2023-04-14T04:02:17.814Z,44.96
2023-04-14T04:03:17.942Z,45.92
2023-04-14T04:04:17.783Z,46.89
2023-04-14T04:05:17.744Z,46.73
2023-04-14T04:06:17.701Z,44.31
2023-04-14T04:07:17.698Z,49.63
2023-04-14T04:08:17.689Z,48.82
2023-04-14T04:09:17.681Z,51.72
2023-04-14T04:10:17.697Z,44.63
2023-04-14T04:11:17.661Z,49.63
2023-04-14T04:12:17.651Z,54.30
2023-04-14T04:13:17.666Z,49.95
2023-04-14T04:14:17.641Z,54.62
2023-04-14T04:15:17.662Z,49.95
2023-04-14T04:16:17.693Z,53.33
2023-04-14T04:17:17.652Z,44.15
2023-04-14T04:18:17.609Z,44.79
2023-04-14T04:19:17.624Z,47.05
2023-04-14T04:20:17.597Z,50.43
2023-04-14T04:21:17.587Z,49.31
2023-04-14T04:22:17.582Z,50.92
2023-04-14T04:23:17.586Z,52.37
2023-04-14T04:24:17.584Z,46.89
2023-04-14T04:25:17.559Z,49.79
2023-04-14T04:26:17.548Z,56.40
2023-04-14T04:27:27.090Z,47.21
2023-04-14T04:28:19.568Z,50.92
2023-04-14T04:29:17.567Z,50.60
2023-04-14T04:30:17.517Z,55.75
2023-04-14T04:31:17.506Z,50.27
2023-04-14T04:32:17.570Z,53.98
2023-04-14T04:33:17.508Z,49.95
2023-04-14T04:34:17.526Z,48.66
2023-04-14T04:35:17.487Z,49.15
2023-04-14T04:36:17.468Z,57.20
2023-04-14T04:37:17.463Z,53.01
2023-04-14T04:38:17.453Z,56.56
2023-04-14T04:39:17.476Z,51.72
2023-04-14T04:40:17.443Z,57.36
2023-04-14T04:41:17.431Z,48.66
2023-04-14T04:42:17.425Z,55.11
2023-04-14T04:43:17.412Z,47.05
2023-04-14T04:44:17.433Z,49.95
2023-04-14T04:45:17.401Z,56.88
2023-04-14T04:46:17.439Z,52.21
2023-04-14T04:47:18.398Z,55.43
2023-04-14T04:48:17.384Z,50.27
2023-04-14T04:49:17.397Z,49.95
2023-04-14T04:50:18.994Z,49.47
2023-04-14T04:51:18.349Z,53.50
2023-04-14T04:52:17.345Z,52.69
2023-04-14T04:53:17.338Z,49.15
2023-04-14T04:54:17.360Z,48.34
2023-04-14T04:55:17.322Z,52.37
2023-04-14T04:56:17.321Z,46.25
2023-04-14T04:57:17.325Z,52.53
2023-04-14T04:58:17.304Z,51.08
2023-04-14T04:59:17.313Z,53.01
2023-04-14T05:00:17.278Z,51.56
2023-04-14T05:01:17.338Z,49.63
2023-04-14T05:02:17.311Z,58.01
2023-04-14T05:03:17.284Z,52.21
2023-04-14T05:04:17.354Z,46.73
2023-04-14T05:05:17.260Z,49.31
2023-04-14T05:06:17.239Z,53.98
2023-04-14T05:07:17.230Z,54.62
2023-04-14T05:08:17.227Z,51.56
2023-04-14T05:09:17.240Z,48.98
2023-04-14T05:10:17.220Z,46.08
2023-04-14T05:11:17.209Z,55.91
2023-04-14T05:12:17.204Z,54.46
2023-04-14T05:13:17.177Z,52.21
2023-04-14T05:14:18.204Z,46.57
2023-04-14T05:15:17.179Z,57.69
2023-04-14T05:16:17.342Z,56.24
2023-04-14T05:17:17.151Z,49.31
2023-04-14T05:18:17.140Z,48.02
2023-04-14T05:19:17.167Z,51.72
2023-04-14T05:20:17.132Z,49.31
2023-04-14T05:21:17.127Z,48.02
2023-04-14T05:22:17.111Z,54.46
2023-04-14T05:23:17.107Z,52.69
2023-04-14T05:24:17.094Z,50.11
2023-04-14T05:25:17.107Z,57.52
2023-04-14T05:27:18.074Z,49.63
2023-04-14T05:28:17.061Z,46.89
2023-04-14T05:29:17.056Z,45.44
2023-04-14T05:30:17.080Z,49.47
2023-04-14T05:31:17.087Z,48.02
2023-04-14T05:32:17.041Z,52.21
2023-04-14T05:33:17.033Z,55.91
2023-04-14T05:34:17.035Z,53.01
2023-04-14T05:35:17.023Z,49.31
2023-04-14T05:36:18.008Z,47.21
2023-04-14T05:37:16.990Z,48.18
2023-04-14T05:38:16.988Z,52.85
2023-04-14T05:39:16.976Z,51.08
2023-04-14T05:40:16.995Z,48.02
2023-04-14T05:41:16.961Z,53.01
2023-04-14T05:42:16.963Z,47.21
2023-04-14T05:43:16.947Z,53.98
2023-04-14T05:44:16.929Z,51.56
2023-04-14T05:45:16.972Z,54.14
2023-04-14T05:46:16.966Z,54.62
2023-04-14T05:47:16.902Z,53.98
2023-04-14T05:48:16.942Z,53.17
2023-04-14T05:49:16.888Z,47.86
2023-04-14T05:50:16.920Z,53.50
2023-04-14T05:51:16.883Z,49.31
2023-04-14T05:52:16.881Z,51.40
2023-04-14T05:53:16.857Z,52.21
2023-04-14T05:54:16.866Z,49.31
2023-04-14T05:55:16.876Z,48.50
2023-04-14T05:56:16.834Z,57.85
2023-04-14T05:57:16.834Z,52.37
2023-04-14T05:58:16.823Z,57.36
2023-04-14T05:59:16.848Z,47.21
2023-04-14T06:00:16.843Z,45.12
2023-04-14T06:01:16.830Z,44.31
2023-04-14T06:02:16.905Z,46.73
2023-04-14T06:03:17.150Z,52.37
2023-04-14T06:04:16.949Z,57.04
2023-04-14T06:05:16.829Z,54.62
2023-04-14T06:06:16.757Z,55.75
2023-04-14T06:07:16.746Z,58.33
2023-04-14T06:08:16.740Z,60.42
2023-04-14T06:09:16.735Z,57.69
2023-04-14T06:10:16.747Z,53.98
2023-04-14T06:11:16.714Z,56.56
2023-04-14T06:12:16.701Z,52.69
2023-04-14T06:13:16.695Z,51.72
2023-04-14T06:14:16.689Z,52.53
2023-04-14T06:15:16.693Z,53.82
2023-04-14T06:16:17.730Z,57.04
2023-04-14T06:17:16.680Z,51.72
2023-04-14T06:18:16.660Z,51.72
2023-04-14T06:19:16.649Z,51.40
2023-04-14T06:20:16.669Z,53.66
2023-04-14T06:21:16.640Z,54.46
2023-04-14T06:22:16.650Z,58.49
2023-04-14T06:23:16.617Z,55.59
2023-04-14T06:24:16.622Z,54.62
2023-04-14T06:25:16.643Z,59.62
2023-04-14T06:26:16.606Z,53.98
2023-04-14T06:27:16.590Z,59.78
2023-04-14T06:28:16.581Z,53.33
2023-04-14T06:29:16.574Z,53.01
2023-04-14T06:30:16.626Z,55.59
2023-04-14T06:31:16.589Z,53.82
2023-04-14T06:32:16.600Z,55.27
2023-04-14T06:33:16.550Z,52.85
2023-04-14T06:34:16.535Z,54.30
2023-04-14T06:35:25.687Z,52.21
2023-04-14T06:36:18.535Z,50.27
2023-04-14T06:37:16.510Z,51.24
2023-04-14T06:38:16.496Z,51.24
2023-04-14T06:39:16.490Z,52.21
2023-04-14T06:40:16.511Z,51.56
2023-04-14T06:41:16.485Z,54.95
2023-04-14T06:42:16.465Z,53.01
2023-04-14T06:43:16.461Z,53.33
2023-04-14T06:44:16.449Z,53.33
2023-04-14T06:45:16.470Z,51.56
2023-04-14T06:46:16.475Z,53.33
2023-04-14T06:47:16.426Z,51.88
2023-04-14T06:48:16.416Z,50.60
2023-04-14T06:49:16.422Z,53.66
2023-04-14T06:50:16.441Z,49.79
2023-04-14T06:51:16.401Z,50.76
2023-04-14T06:52:16.399Z,52.05
2023-04-14T06:53:16.387Z,51.56
2023-04-14T06:54:16.371Z,53.33
2023-04-14T06:55:16.389Z,53.33
2023-04-14T06:56:16.356Z,48.82
2023-04-14T06:57:16.365Z,50.27
2023-04-14T06:58:16.385Z,56.24
2023-04-14T06:59:16.338Z,55.59
2023-04-14T07:00:16.352Z,50.60
2023-04-14T07:01:16.340Z,50.27
2023-04-14T07:02:16.420Z,52.85
2023-04-14T07:03:16.354Z,56.72
2023-04-14T07:04:16.363Z,58.65
2023-04-14T07:05:16.317Z,60.26
2023-04-14T07:06:16.282Z,55.75
2023-04-14T07:07:16.280Z,52.05
2023-04-14T07:08:16.263Z,52.37
2023-04-14T07:09:16.423Z,58.49
2023-04-14T07:10:16.285Z,46.08
2023-04-14T07:11:16.241Z,44.63
2023-04-14T07:12:16.240Z,45.28
2023-04-14T07:13:16.242Z,52.69
2023-04-14T07:14:16.216Z,53.50
2023-04-14T07:15:16.237Z,51.40
2023-04-14T07:16:16.261Z,46.08
2023-04-14T07:17:16.196Z,53.98
2023-04-14T07:18:16.201Z,58.65
2023-04-14T07:19:16.181Z,50.92
2023-04-14T07:20:17.201Z,49.79
2023-04-14T07:21:16.158Z,52.05
2023-04-14T07:22:16.158Z,48.66
2023-04-14T07:23:16.152Z,48.50
2023-04-14T07:24:16.147Z,52.53
2023-04-14T07:25:16.157Z,49.15
2023-04-14T07:26:16.121Z,50.43
2023-04-14T07:27:16.114Z,47.21
2023-04-14T07:28:16.128Z,52.21
2023-04-14T07:29:16.101Z,49.79
2023-04-14T07:30:16.118Z,46.41
2023-04-14T07:31:16.109Z,54.46
2023-04-14T07:32:16.074Z,48.02
2023-04-14T07:33:16.077Z,53.01
2023-04-14T07:34:16.059Z,47.05
2023-04-14T07:35:16.079Z,48.82
2023-04-14T07:36:16.044Z,48.82
2023-04-14T07:37:16.041Z,50.43
2023-04-14T07:38:16.027Z,54.95
2023-04-14T07:39:16.025Z,51.24
2023-04-14T07:40:16.042Z,49.47
2023-04-14T07:41:16.013Z,51.24
2023-04-14T07:42:16.012Z,49.63
2023-04-14T07:43:15.983Z,49.47
2023-04-14T07:44:15.975Z,57.52
2023-04-14T07:45:15.996Z,51.40
2023-04-14T07:46:16.032Z,49.47
2023-04-14T07:47:15.965Z,49.63
2023-04-14T07:48:15.947Z,49.79
2023-04-14T07:49:15.949Z,51.24
2023-04-14T07:50:17.166Z,51.24
2023-04-14T07:51:15.927Z,47.37
2023-04-14T07:52:15.922Z,49.47
2023-04-14T07:53:15.909Z,50.92
2023-04-14T07:54:15.901Z,49.63
2023-04-14T07:55:15.947Z,52.85
2023-04-14T07:56:15.882Z,51.72
2023-04-14T07:57:15.879Z,48.82
2023-04-14T07:58:15.998Z,55.27
2023-04-14T07:59:15.863Z,49.31
2023-04-14T08:00:15.894Z,53.17
2023-04-14T08:01:15.845Z,47.37
2023-04-14T08:02:15.926Z,54.46
2023-04-14T08:03:15.985Z,54.79
2023-04-14T08:04:16.007Z,55.11
2023-04-14T08:05:15.887Z,57.36
2023-04-14T08:06:15.806Z,52.69
2023-04-14T08:07:15.791Z,56.07
2023-04-14T08:08:15.789Z,56.56
2023-04-14T08:09:15.810Z,51.88
2023-04-14T08:10:15.806Z,55.27
2023-04-14T08:11:15.770Z,52.05
2023-04-14T08:12:15.759Z,48.82
2023-04-14T08:13:15.761Z,53.17
2023-04-14T08:14:15.748Z,60.42
2023-04-14T08:15:15.774Z,53.66
2023-04-14T08:16:15.758Z,49.95
2023-04-14T08:17:15.745Z,52.69
2023-04-14T08:18:16.717Z,58.17
2023-04-14T08:19:15.706Z,54.46
2023-04-14T08:20:15.725Z,51.56
2023-04-14T08:21:15.690Z,53.01
2023-04-14T08:22:15.704Z,49.47
2023-04-14T08:23:15.672Z,52.53
2023-04-14T08:24:15.670Z,54.62
2023-04-14T08:25:15.683Z,49.47
2023-04-14T08:26:15.693Z,53.01
2023-04-14T08:27:15.688Z,48.50
2023-04-14T08:28:15.655Z,51.40
2023-04-14T08:29:15.629Z,52.37
2023-04-14T08:30:15.647Z,52.21
2023-04-14T08:31:15.661Z,52.05
2023-04-14T08:32:15.796Z,51.88
2023-04-14T08:33:15.768Z,51.56
2023-04-14T08:34:15.590Z,53.33
2023-04-14T08:35:36.923Z,53.01
2023-04-14T08:36:16.573Z,47.86
2023-04-14T08:37:15.567Z,52.69
2023-04-14T08:38:15.563Z,52.53
2023-04-14T08:39:15.559Z,49.79
2023-04-14T08:40:15.588Z,51.88
2023-04-14T08:41:15.535Z,56.72
2023-04-14T08:42:15.534Z,55.27
2023-04-14T08:43:15.632Z,55.27
2023-04-14T08:44:16.508Z,54.14
2023-04-14T08:45:15.541Z,49.95
2023-04-14T08:46:15.531Z,49.79
2023-04-14T08:47:15.491Z,55.11
2023-04-14T08:48:15.498Z,54.14
2023-04-14T08:49:15.474Z,49.15
2023-04-14T08:50:15.506Z,58.01
2023-04-14T08:51:15.477Z,48.18
2023-04-14T08:52:15.454Z,51.56
2023-04-14T08:53:15.457Z,48.82
2023-04-14T08:54:15.436Z,52.85
2023-04-14T08:55:15.490Z,50.27
2023-04-14T08:56:15.424Z,51.56
2023-04-14T08:57:15.412Z,52.53
2023-04-14T08:58:15.398Z,53.50
2023-04-14T08:59:15.397Z,49.95
2023-04-14T09:00:15.413Z,52.37
2023-04-14T09:01:15.475Z,49.47
2023-04-14T09:02:15.431Z,44.31
2023-04-14T09:03:15.456Z,48.82
2023-04-14T09:04:15.509Z,49.95
2023-04-14T09:05:15.362Z,50.76
2023-04-14T09:06:15.366Z,51.08
2023-04-14T09:07:15.337Z,50.92
2023-04-14T09:08:15.334Z,49.79
2023-04-14T09:09:15.313Z,54.30
2023-04-14T09:10:15.338Z,48.18
2023-04-14T09:11:15.320Z,53.50
2023-04-14T09:12:15.290Z,53.66
2023-04-14T09:13:15.389Z,56.40
2023-04-14T09:14:15.278Z,52.37
2023-04-14T09:15:15.298Z,52.05
2023-04-14T09:16:15.297Z,48.50
2023-04-14T09:17:15.286Z,53.82
2023-04-14T09:18:15.256Z,55.75
2023-04-14T09:19:15.255Z,52.85
2023-04-14T09:20:36.397Z,51.40
2023-04-14T09:21:34.316Z,49.95
2023-04-14T09:22:16.218Z,58.97
2023-04-14T09:23:15.204Z,54.14
2023-04-14T09:24:15.198Z,53.33
2023-04-14T09:25:15.226Z,51.40
2023-04-14T09:26:15.180Z,48.02
2023-04-14T09:27:15.185Z,52.69
2023-04-14T09:28:15.170Z,48.82
2023-04-14T09:29:15.157Z,44.79
2023-04-14T09:30:15.180Z,51.40
2023-04-14T09:31:15.251Z,51.24
2023-04-14T09:32:15.142Z,46.57
2023-04-14T09:33:15.152Z,50.60
2023-04-14T09:34:15.153Z,56.24
2023-04-14T09:35:15.173Z,50.11
2023-04-14T09:36:15.109Z,50.11
2023-04-14T09:37:15.106Z,51.88
2023-04-14T09:38:15.111Z,51.40
2023-04-14T09:39:15.081Z,50.92
2023-04-14T09:40:15.105Z,48.18
2023-04-14T09:41:15.063Z,45.76
2023-04-14T09:42:15.059Z,50.11
2023-04-14T09:43:15.048Z,49.79
2023-04-14T09:44:15.037Z,49.15
2023-04-14T09:45:15.065Z,47.86
2023-04-14T09:46:15.079Z,47.70
2023-04-14T09:47:15.016Z,53.82
2023-04-14T09:48:15.047Z,53.17
2023-04-14T09:49:15.004Z,52.21
2023-04-14T09:50:15.015Z,47.21
2023-04-14T09:51:14.984Z,49.63
2023-04-14T09:52:14.979Z,53.50
2023-04-14T09:53:14.974Z,49.31
2023-04-14T09:54:14.961Z,48.18
2023-04-14T09:55:15.009Z,51.56
2023-04-14T09:56:14.951Z,51.40
2023-04-14T09:57:14.935Z,56.07
2023-04-14T09:58:14.948Z,50.76
2023-04-14T09:59:14.923Z,53.82
2023-04-14T10:00:14.951Z,52.85
2023-04-14T10:01:14.974Z,51.40
2023-04-14T10:02:15.095Z,51.40
2023-04-14T10:03:14.967Z,48.66
2023-04-14T10:04:14.900Z,48.66
2023-04-14T10:05:14.966Z,54.95
2023-04-14T10:06:14.877Z,48.82
2023-04-14T10:07:14.865Z,51.08
2023-04-14T10:08:14.852Z,48.82
2023-04-14T10:09:14.858Z,50.11
2023-04-14T10:10:14.840Z,51.56
2023-04-14T10:11:14.872Z,53.17
2023-04-14T10:12:14.843Z,53.17
2023-04-14T10:13:14.822Z,55.75
2023-04-14T10:14:14.813Z,49.31
2023-04-14T10:15:14.812Z,50.76
2023-04-14T10:16:14.918Z,49.63
2023-04-14T10:17:14.798Z,49.95
2023-04-14T10:18:14.821Z,51.24
2023-04-14T10:19:14.791Z,45.28
2023-04-14T10:20:14.766Z,51.40
2023-04-14T10:21:14.783Z,41.89
2023-04-14T10:22:14.749Z,52.37
2023-04-14T10:23:14.748Z,49.15
2023-04-14T10:24:14.752Z,48.02
2023-04-14T10:25:14.735Z,48.82
2023-04-14T10:26:14.758Z,51.08
2023-04-14T10:27:14.714Z,43.67
2023-04-14T10:28:14.706Z,46.57
2023-04-14T10:29:14.694Z,50.76
2023-04-14T10:30:14.701Z,50.92
2023-04-14T10:31:14.779Z,58.01
2023-04-14T10:32:14.692Z,52.69
2023-04-14T10:33:14.677Z,53.66
2023-04-14T10:34:14.687Z,54.79
2023-04-14T10:35:14.668Z,54.30
2023-04-14T10:36:14.668Z,50.92
2023-04-14T10:37:15.647Z,49.63
2023-04-14T10:38:14.675Z,53.01
2023-04-14T10:39:14.622Z,55.11
2023-04-14T10:40:14.625Z,54.14
2023-04-14T10:41:14.634Z,58.17
2023-04-14T10:42:14.600Z,53.33
2023-04-14T10:43:14.591Z,47.21
2023-04-14T10:44:14.593Z,49.63
2023-04-14T10:45:14.588Z,48.82
2023-04-14T10:46:15.333Z,54.14
2023-04-14T10:47:14.586Z,55.59
2023-04-14T10:48:14.557Z,53.01
2023-04-14T10:49:14.543Z,48.02
2023-04-14T10:50:14.557Z,51.88
2023-04-14T10:51:14.571Z,49.79
2023-04-14T10:52:14.533Z,48.66
2023-04-14T10:53:14.521Z,48.98
2023-04-14T10:54:14.516Z,51.56
2023-04-14T10:55:14.503Z,47.86
2023-04-14T10:56:14.558Z,53.01
2023-04-14T10:57:14.511Z,45.92
2023-04-14T10:58:14.496Z,47.05
2023-04-14T10:59:14.467Z,47.86
2023-04-14T11:00:14.468Z,54.95
2023-04-14T11:01:14.519Z,50.60
2023-04-14T11:02:14.523Z,48.66
2023-04-14T11:03:14.540Z,49.95
2023-04-14T11:04:14.541Z,51.72
2023-04-14T11:05:14.432Z,47.21
2023-04-14T11:06:14.434Z,44.31
2023-04-14T11:07:14.409Z,58.17
2023-04-14T11:08:14.393Z,50.27
2023-04-14T11:09:14.389Z,54.95
2023-04-14T11:10:14.377Z,45.76
2023-04-14T11:11:14.373Z,52.05
2023-04-14T11:12:14.387Z,52.05
2023-04-14T11:13:16.549Z,49.31
2023-04-14T11:14:14.354Z,44.96
2023-04-14T11:15:14.336Z,46.08
2023-04-14T11:16:15.353Z,53.66
2023-04-14T11:17:14.381Z,53.17
2023-04-14T11:18:14.561Z,46.57
2023-04-14T11:19:14.318Z,48.82
2023-04-14T11:20:14.300Z,52.37
2023-04-14T11:21:14.326Z,46.57
2023-04-14T11:22:14.307Z,49.31
2023-04-14T11:23:14.281Z,50.43
2023-04-14T11:24:14.274Z,52.69
2023-04-14T11:25:14.265Z,50.43
2023-04-14T11:26:14.458Z,52.21
2023-04-14T11:27:14.266Z,48.50
2023-04-14T11:28:14.232Z,53.50
2023-04-14T11:29:14.229Z,50.60
2023-04-14T11:30:14.212Z,52.85
2023-04-14T11:31:15.225Z,50.92
2023-04-14T11:32:14.280Z,46.89
2023-04-14T11:33:14.251Z,46.57
2023-04-14T11:34:14.186Z,51.40
2023-04-14T11:35:14.182Z,53.50
2023-04-14T11:36:14.176Z,50.11
2023-04-14T11:37:14.193Z,49.31
2023-04-14T11:38:14.233Z,49.15
2023-04-14T11:39:14.151Z,54.30
2023-04-14T11:40:14.142Z,50.11
2023-04-14T11:41:14.144Z,55.59
2023-04-14T11:42:14.150Z,53.17
2023-04-14T11:43:14.133Z,56.07
2023-04-14T11:44:14.119Z,54.30
2023-04-14T11:45:14.135Z,55.11
2023-04-14T11:46:14.131Z,57.20
2023-04-14T11:47:14.127Z,63.97
2023-04-14T11:48:14.086Z,61.55
2023-04-14T11:49:14.075Z,58.17
2023-04-14T11:50:14.061Z,59.14
2023-04-14T11:51:14.080Z,63.65
2023-04-14T11:52:14.081Z,65.26
2023-04-14T11:53:14.050Z,58.33
2023-04-14T11:54:14.070Z,60.59
2023-04-14T11:55:14.029Z,58.65
2023-04-14T11:56:14.026Z,63.97
2023-04-14T11:57:14.043Z,58.97
2023-04-14T11:58:14.006Z,56.72
2023-04-14T11:59:14.000Z,55.27
2023-04-14T12:00:14.000Z,57.69
2023-04-14T12:01:13.998Z,57.69
2023-04-14T12:02:14.070Z,57.85
2023-04-14T12:03:14.125Z,61.23
2023-04-14T12:04:14.095Z,61.39
2023-04-14T12:05:14.150Z,63.97
2023-04-14T12:06:13.961Z,61.87
2023-04-14T12:07:13.968Z,61.07
2023-04-14T12:08:13.931Z,61.07
2023-04-14T12:09:13.923Z,60.59
2023-04-14T12:10:13.934Z,59.46
2023-04-14T12:11:13.964Z,61.39
2023-04-14T12:12:13.924Z,58.01
2023-04-14T12:13:13.906Z,60.75
2023-04-14T12:14:13.885Z,57.20
2023-04-14T12:15:13.876Z,60.75
2023-04-14T12:16:13.971Z,60.42
2023-04-14T12:17:13.900Z,56.40
2023-04-14T12:18:14.160Z,57.69
2023-04-14T12:19:13.850Z,60.91
2023-04-14T12:20:13.883Z,55.59
2023-04-14T12:21:13.832Z,59.14
2023-04-14T12:22:13.846Z,62.20
2023-04-14T12:23:13.814Z,59.14
2023-04-14T12:24:13.805Z,61.39
2023-04-14T12:25:13.804Z,54.46
2023-04-14T12:26:13.804Z,59.94
2023-04-14T12:27:13.805Z,59.78
2023-04-14T12:28:13.774Z,56.40
2023-04-14T12:29:13.790Z,56.07
2023-04-14T12:30:13.859Z,54.95
2023-04-14T12:31:13.790Z,58.97
2023-04-14T12:32:13.786Z,50.76
2023-04-14T12:33:13.763Z,60.10
2023-04-14T12:34:13.738Z,56.72
2023-04-14T12:35:13.715Z,58.33
2023-04-14T12:36:13.712Z,57.20
2023-04-14T12:37:13.930Z,51.56
2023-04-14T12:38:13.742Z,57.85
2023-04-14T12:39:13.693Z,59.30
2023-04-14T12:40:13.689Z,59.62
2023-04-14T12:41:13.675Z,57.69
2023-04-14T12:42:13.694Z,58.17
2023-04-14T12:43:13.659Z,58.65
2023-04-14T12:44:13.650Z,55.59
2023-04-14T12:45:13.641Z,56.24
2023-04-14T12:46:13.661Z,57.04
2023-04-14T12:47:13.736Z,60.42
2023-04-14T12:48:13.697Z,57.85
2023-04-14T12:49:13.613Z,64.29
2023-04-14T12:50:13.665Z,61.23
2023-04-14T12:51:13.594Z,61.87
2023-04-14T12:52:13.590Z,58.65
2023-04-14T12:53:13.607Z,58.49